Time;durP1;ratioP1;P1;durP2;ratioP2;P2;SDS_P1;SDS_P2;PMS_P1;PMS_P2;Temp;Humidity;BMP_temperature;BMP_pressure;BME280_temperature;BME280_humidity;BME280_pressure;Samples;Min_cycle;Max_cycle;Signal;HPM_P1;HPM_P2
2022/12/16 00:01:57;;;;;;;63.63;31.10;;;-3.40;99.90;;;;;;5093904;28;20200;-78
2022/12/16 00:04:26;;;;;;;65.60;30.17;;;-3.40;99.90;;;;;;5094546;28;20200;-78
2022/12/16 00:06:55;;;;;;;72.43;32.10;;;-3.30;99.90;;;;;;5094107;28;20325;-76
2022/12/16 00:09:23;;;;;;;67.50;30.13;;;-3.20;99.90;;;;;;5092555;28;20202;-76
2022/12/16 00:11:52;;;;;;;59.93;29.80;;;-3.30;99.90;;;;;;5094412;28;20236;-78
2022/12/16 00:14:20;;;;;;;70.77;33.37;;;-3.30;99.90;;;;;;5094362;28;20199;-77
2022/12/16 00:16:49;;;;;;;69.27;32.20;;;-3.50;99.90;;;;;;5094455;28;20220;-76
2022/12/16 00:19:19;;;;;;;68.53;31.03;;;-3.50;99.90;;;;;;5093320;28;20283;-79
2022/12/16 00:21:47;;;;;;;67.40;31.10;;;-3.50;99.90;;;;;;5092638;28;20199;-79
2022/12/16 00:24:16;;;;;;;71.37;32.97;;;-3.50;99.90;;;;;;5091710;28;20196;-77
2022/12/16 00:26:44;;;;;;;73.67;33.93;;;-3.50;99.90;;;;;;5093481;28;20231;-77
2022/12/16 00:29:13;;;;;;;67.77;31.73;;;-3.60;99.90;;;;;;5092881;28;20201;-75
2022/12/16 00:31:46;;;;;;;71.73;32.07;;;-3.50;99.90;;;;;;5094454;28;20621;-77
2022/12/16 00:34:16;;;;;;;71.47;31.47;;;-3.50;99.90;;;;;;5092266;28;20280;-79
2022/12/16 00:36:46;;;;;;;62.57;30.60;;;-3.50;99.90;;;;;;5092558;28;20197;-78
2022/12/16 00:39:14;;;;;;;62.33;29.33;;;-3.40;99.90;;;;;;5093157;28;20197;-80
2022/12/16 00:41:43;;;;;;;70.83;31.77;;;-3.40;99.90;;;;;;5093018;28;20193;-76
2022/12/16 00:44:11;;;;;;;70.40;32.20;;;-3.50;99.90;;;;;;5093036;28;20204;-77
2022/12/16 00:46:40;;;;;;;71.37;28.67;;;-3.50;99.90;;;;;;5090408;28;20232;-80
2022/12/16 00:49:08;;;;;;;67.37;31.33;;;-3.50;99.90;;;;;;5093724;28;20208;-78
2022/12/16 00:51:37;;;;;;;58.23;27.37;;;-3.70;99.90;;;;;;5093901;28;20582;-77
2022/12/16 00:54:07;;;;;;;62.90;29.20;;;-3.80;99.90;;;;;;5093241;28;20200;-78
2022/12/16 00:56:35;;;;;;;58.23;26.63;;;-3.80;99.90;;;;;;5093844;28;20196;-78
2022/12/16 00:59:04;;;;;;;59.47;28.03;;;-3.80;99.90;;;;;;5093644;28;20229;-76
2022/12/16 01:01:32;;;;;;;56.43;26.00;;;-3.90;99.90;;;;;;5093747;28;20279;-76
2022/12/16 01:04:01;;;;;;;64.13;27.47;;;-3.90;99.90;;;;;;5093646;28;20188;-77
2022/12/16 01:06:30;;;;;;;56.27;27.77;;;-4.00;99.90;;;;;;5093183;28;20233;-77
2022/12/16 01:08:58;;;;;;;63.80;26.23;;;-4.00;99.90;;;;;;5093921;28;20650;-78
2022/12/16 01:11:28;;;;;;;60.40;27.53;;;-3.90;99.90;;;;;;5093203;28;20212;-77
2022/12/16 01:13:56;;;;;;;51.50;25.80;;;-3.70;99.90;;;;;;5093454;28;20283;-79
2022/12/16 01:16:25;;;;;;;61.00;26.33;;;-3.70;99.90;;;;;;5093013;28;20197;-78
2022/12/16 01:18:55;;;;;;;52.93;25.10;;;-3.60;99.90;;;;;;5093258;28;20749;-79
2022/12/16 01:21:23;;;;;;;53.60;24.77;;;-3.50;99.90;;;;;;5093492;28;20202;-75
2022/12/16 01:23:52;;;;;;;62.17;26.90;;;-3.40;99.90;;;;;;5093172;28;20198;-79
2022/12/16 01:26:22;;;;;;;58.70;24.63;;;-3.40;99.90;;;;;;5093060;28;20224;-78
2022/12/16 01:28:52;;;;;;;57.53;26.50;;;-3.60;99.90;;;;;;5092682;28;20662;-77
2022/12/16 01:31:22;;;;;;;61.53;26.93;;;-3.80;99.90;;;;;;5093064;28;20207;-78
2022/12/16 01:33:51;;;;;;;52.73;26.30;;;-3.80;99.90;;;;;;5091819;28;20678;-78
2022/12/16 01:36:20;;;;;;;56.33;26.17;;;-3.80;99.90;;;;;;5092835;28;20666;-78
2022/12/16 01:38:48;;;;;;;59.10;26.30;;;-3.80;99.90;;;;;;5093119;28;20218;-78
2022/12/16 01:41:18;;;;;;;60.23;27.60;;;-3.80;99.90;;;;;;5092903;28;20207;-79
2022/12/16 01:43:47;;;;;;;60.33;27.90;;;-3.70;99.90;;;;;;5092849;28;20285;-77
2022/12/16 01:46:21;;;;;;;65.70;26.97;;;-3.80;99.90;;;;;;5092417;28;20230;-78
2022/12/16 01:48:55;;;;;;;54.63;27.07;;;-3.80;99.90;;;;;;5092668;28;20212;-78
2022/12/16 01:51:28;;;;;;;60.73;28.00;;;-3.80;99.90;;;;;;5092727;28;20197;-77
2022/12/16 01:54:00;;;;;;;60.60;25.87;;;-3.90;99.90;;;;;;5092701;28;20627;-77
2022/12/16 01:56:31;;;;;;;57.03;27.13;;;-4.00;99.90;;;;;;5092631;28;20221;-78
2022/12/16 01:59:01;;;;;;;62.47;28.03;;;-4.20;99.90;;;;;;5092494;28;20243;-80
2022/12/16 02:01:31;;;;;;;71.33;29.87;;;-4.30;99.90;;;;;;5092506;28;20211;-79
2022/12/16 02:04:03;;;;;;;67.80;27.93;;;-4.40;99.90;;;;;;5092611;28;20196;-79
2022/12/16 02:06:32;;;;;;;57.27;25.50;;;-4.30;99.90;;;;;;5092294;28;20318;-78
2022/12/16 02:09:04;;;;;;;60.00;24.53;;;-4.30;99.90;;;;;;5092585;28;20196;-78
2022/12/16 02:11:50;;;;;;;63.30;29.47;;;-4.20;99.90;;;;;;5092985;28;20184;-79
2022/12/16 02:14:39;;;;;;;62.67;26.90;;;-4.10;99.90;;;;;;5092678;28;20201;-79
2022/12/16 02:17:18;;;;;;;58.10;25.57;;;-4.10;99.90;;;;;;5092281;28;20288;-78
2022/12/16 02:20:24;;;;;;;62.57;25.83;;;-4.10;99.90;;;;;;5092487;28;20250;-79
2022/12/16 02:23:14;;;;;;;51.73;26.77;;;-4.10;99.90;;;;;;5092108;28;20293;-78
2022/12/16 02:26:02;;;;;;;56.30;26.17;;;-4.20;99.90;;;;;;5092353;28;20198;-78
2022/12/16 02:28:52;;;;;;;47.73;24.63;;;-4.20;99.90;;;;;;5092543;28;20204;-79
2022/12/16 02:31:31;;;;;;;59.43;25.33;;;-4.20;99.90;;;;;;5092277;28;20693;-77
2022/12/16 02:34:10;;;;;;;61.57;25.90;;;-4.40;99.90;;;;;;5092324;28;20272;-78
2022/12/16 02:36:51;;;;;;;56.73;25.00;;;-4.30;99.90;;;;;;5091113;28;20229;-78
2022/12/16 02:39:23;;;;;;;45.30;22.97;;;-4.10;99.90;;;;;;5092185;28;20208;-78
2022/12/16 02:41:57;;;;;;;54.27;25.33;;;-4.00;99.90;;;;;;5094542;28;20291;-78
2022/12/16 02:44:34;;;;;;;45.60;23.53;;;-3.80;99.90;;;;;;5096179;28;20633;-76
2022/12/16 02:47:04;;;;;;;60.47;24.90;;;-3.80;99.90;;;;;;5095712;28;20226;-77
2022/12/16 02:49:53;;;;;;;73.40;34.63;;;-4.00;99.90;;;;;;5096099;28;20193;-76
2022/12/16 02:52:24;;;;;;;49.83;25.33;;;-4.00;99.90;;;;;;5095844;28;20222;-79
2022/12/16 02:54:56;;;;;;;55.00;26.47;;;-4.10;99.90;;;;;;5095929;28;20192;-78
2022/12/16 02:58:06;;;;;;;52.20;25.43;;;-4.20;99.90;;;;;;5095916;28;20271;-78
2022/12/16 03:00:41;;;;;;;53.20;26.53;;;-4.20;99.90;;;;;;5053276;28;20202;-80
2022/12/16 03:03:17;;;;;;;61.50;27.03;;;-4.20;99.90;;;;;;5053380;28;20284;-79
2022/12/16 03:05:48;;;;;;;59.00;26.90;;;-4.00;99.90;;;;;;5053282;28;20206;-79
2022/12/16 03:08:22;;;;;;;57.63;26.13;;;-4.10;99.90;;;;;;5052916;28;20753;-80
2022/12/16 03:10:56;;;;;;;59.57;26.20;;;-3.90;99.90;;;;;;5053143;28;20206;-77
2022/12/16 03:13:27;;;;;;;68.63;27.60;;;-4.10;99.90;;;;;;5053194;28;20230;-78
2022/12/16 03:16:00;;;;;;;57.50;25.90;;;-4.30;99.90;;;;;;5052883;28;20199;-79
2022/12/16 03:18:30;;;;;;;64.27;25.90;;;-4.30;99.90;;;;;;5053076;28;20212;-75
2022/12/16 03:21:01;;;;;;;62.70;27.30;;;-4.20;99.90;;;;;;5052988;28;20546;-77
2022/12/16 03:23:34;;;;;;;55.30;26.23;;;-4.10;99.90;;;;;;5052756;28;20198;-76
2022/12/16 03:26:07;;;;;;;56.40;25.63;;;-4.10;99.90;;;;;;5052889;28;20203;-78
2022/12/16 03:28:44;;;;;;;61.17;26.33;;;-3.90;99.90;;;;;;5052692;28;20304;-76
2022/12/16 03:31:26;;;;;;;57.77;26.27;;;-3.70;99.90;;;;;;5052721;28;20212;-79
2022/12/16 03:34:01;;;;;;;55.60;26.10;;;-3.60;99.90;;;;;;5052697;28;20232;-80
2022/12/16 03:36:33;;;;;;;65.87;27.87;;;-3.60;99.90;;;;;;5060984;28;20291;-80
2022/12/16 03:39:04;;;;;;;64.93;28.63;;;-3.70;99.90;;;;;;5095087;28;20748;-78
2022/12/16 03:41:34;;;;;;;71.07;30.30;;;-3.80;99.90;;;;;;5095099;28;20610;-77
2022/12/16 03:44:02;;;;;;;65.47;29.73;;;-3.80;99.90;;;;;;5095094;28;20193;-79
2022/12/16 03:46:32;;;;;;;68.80;28.33;;;-3.80;99.90;;;;;;5094566;28;20748;-77
2022/12/16 03:49:02;;;;;;;64.07;28.97;;;-3.80;99.90;;;;;;5094991;28;20223;-77
2022/12/16 03:51:30;;;;;;;58.60;26.20;;;-3.70;99.90;;;;;;5094700;28;20193;-77
2022/12/16 03:53:59;;;;;;;65.13;28.70;;;-3.60;99.90;;;;;;5095109;28;20192;-78
2022/12/16 03:56:27;;;;;;;67.73;29.83;;;-3.80;99.90;;;;;;5095001;28;20221;-79
2022/12/16 03:58:56;;;;;;;64.40;28.93;;;-3.70;99.90;;;;;;5094782;28;20324;-79
2022/12/16 04:01:25;;;;;;;61.57;29.13;;;-3.60;99.90;;;;;;5095167;28;20198;-79
2022/12/16 04:03:53;;;;;;;57.20;25.63;;;-3.50;99.90;;;;;;5095425;28;20197;-78
2022/12/16 04:06:23;;;;;;;60.00;27.87;;;-3.40;99.90;;;;;;5094677;28;20194;-78
2022/12/16 04:08:52;;;;;;;74.40;31.07;;;-3.30;99.90;;;;;;5094363;28;20323;-77
2022/12/16 04:25:22;;;;;;;63.43;27.30;;;-3.10;99.90;;;;;;5012086;28;20204;-78
2022/12/16 04:27:51;;;;;;;64.40;29.57;;;-3.10;99.90;;;;;;5011984;28;20249;-77
2022/12/16 04:30:21;;;;;;;61.93;29.30;;;-3.10;99.90;;;;;;5012007;28;20725;-78
